sensor_id;sensor_type;location;lat;lon;timestamp;P1;durP1;ratioP1;P2;durP2;ratioP2
15976;SDS011;8091;51.914;12.786;2022-09-02T00:01:19;4.13;;;1.30;;
15976;SDS011;8091;51.914;12.786;2022-09-02T00:03:48;1.30;;;0.93;;
15976;SDS011;8091;51.914;12.786;2022-09-02T00:06:14;1.10;;;1.10;;
15976;SDS011;8091;51.914;12.786;2022-09-02T00:08:40;2.50;;;1.10;;
15976;SDS011;8091;51.914;12.786;2022-09-02T00:11:06;4.10;;;1.20;;
15976;SDS011;8091;51.914;12.786;2022-09-02T00:13:34;4.50;;;1.30;;
15976;SDS011;8091;51.914;12.786;2022-09-02T00:16:02;3.22;;;1.30;;
15976;SDS011;8091;51.914;12.786;2022-09-02T00:18:28;1.67;;;1.27;;
15976;SDS011;8091;51.914;12.786;2022-09-02T00:20:54;3.78;;;1.30;;
15976;SDS011;8091;51.914;12.786;2022-09-02T00:23:20;1.35;;;1.25;;
15976;SDS011;8091;51.914;12.786;2022-09-02T00:25:46;1.48;;;1.05;;
15976;SDS011;8091;51.914;12.786;2022-09-02T00:28:13;5.15;;;1.20;;
15976;SDS011;8091;51.914;12.786;2022-09-02T00:30:39;1.52;;;1.30;;
15976;SDS011;8091;51.914;12.786;2022-09-02T00:33:06;3.65;;;1.15;;
15976;SDS011;8091;51.914;12.786;2022-09-02T00:35:32;3.20;;;2.33;;
15976;SDS011;8091;51.914;12.786;2022-09-02T00:37:58;1.65;;;1.15;;
15976;SDS011;8091;51.914;12.786;2022-09-02T00:40:24;1.30;;;1.20;;
15976;SDS011;8091;51.914;12.786;2022-09-02T00:42:52;1.95;;;1.30;;
15976;SDS011;8091;51.914;12.786;2022-09-02T00:45:18;1.10;;;1.10;;
15976;SDS011;8091;51.914;12.786;2022-09-02T00:47:44;3.45;;;1.40;;
15976;SDS011;8091;51.914;12.786;2022-09-02T00:50:12;4.32;;;1.70;;
15976;SDS011;8091;51.914;12.786;2022-09-02T00:52:42;1.42;;;1.20;;
15976;SDS011;8091;51.914;12.786;2022-09-02T00:55:21;2.03;;;1.40;;
15976;SDS011;8091;51.914;12.786;2022-09-02T00:57:51;1.80;;;1.60;;
15976;SDS011;8091;51.914;12.786;2022-09-02T01:00:30;2.60;;;1.10;;
15976;SDS011;8091;51.914;12.786;2022-09-02T01:03:01;1.35;;;1.25;;
15976;SDS011;8091;51.914;12.786;2022-09-02T01:05:30;1.92;;;1.40;;
15976;SDS011;8091;51.914;12.786;2022-09-02T01:07:58;2.90;;;1.25;;
15976;SDS011;8091;51.914;12.786;2022-09-02T01:10:25;1.77;;;1.40;;
15976;SDS011;8091;51.914;12.786;2022-09-02T01:12:59;3.45;;;1.52;;
15976;SDS011;8091;51.914;12.786;2022-09-02T01:15:34;1.50;;;1.40;;
15976;SDS011;8091;51.914;12.786;2022-09-02T01:18:03;5.72;;;1.48;;
15976;SDS011;8091;51.914;12.786;2022-09-02T01:20:30;1.85;;;1.50;;
15976;SDS011;8091;51.914;12.786;2022-09-02T01:22:56;1.65;;;1.38;;
15976;SDS011;8091;51.914;12.786;2022-09-02T01:25:24;3.80;;;1.40;;
15976;SDS011;8091;51.914;12.786;2022-09-02T01:27:52;1.50;;;1.40;;
15976;SDS011;8091;51.914;12.786;2022-09-02T01:30:23;2.00;;;1.40;;
15976;SDS011;8091;51.914;12.786;2022-09-02T01:32:49;3.40;;;1.77;;
15976;SDS011;8091;51.914;12.786;2022-09-02T01:35:15;2.25;;;1.70;;
15976;SDS011;8091;51.914;12.786;2022-09-02T01:37:41;3.05;;;1.50;;
15976;SDS011;8091;51.914;12.786;2022-09-02T01:40:09;4.93;;;1.52;;
15976;SDS011;8091;51.914;12.786;2022-09-02T01:42:37;1.38;;;1.27;;
15976;SDS011;8091;51.914;12.786;2022-09-02T01:45:04;1.52;;;1.42;;
15976;SDS011;8091;51.914;12.786;2022-09-02T01:47:30;2.65;;;1.30;;
15976;SDS011;8091;51.914;12.786;2022-09-02T01:49:56;3.35;;;1.67;;
15976;SDS011;8091;51.914;12.786;2022-09-02T01:52:23;3.45;;;1.55;;
15976;SDS011;8091;51.914;12.786;2022-09-02T01:54:51;1.90;;;1.70;;
15976;SDS011;8091;51.914;12.786;2022-09-02T01:57:17;3.63;;;1.80;;
15976;SDS011;8091;51.914;12.786;2022-09-02T01:59:43;2.95;;;1.40;;
15976;SDS011;8091;51.914;12.786;2022-09-02T02:02:10;2.50;;;1.73;;
15976;SDS011;8091;51.914;12.786;2022-09-02T02:04:36;2.80;;;1.33;;
15976;SDS011;8091;51.914;12.786;2022-09-02T02:07:01;1.63;;;1.52;;
15976;SDS011;8091;51.914;12.786;2022-09-02T02:09:27;2.10;;;1.70;;
15976;SDS011;8091;51.914;12.786;2022-09-02T02:11:53;2.20;;;1.73;;
15976;SDS011;8091;51.914;12.786;2022-09-02T02:14:19;2.10;;;1.23;;
15976;SDS011;8091;51.914;12.786;2022-09-02T02:16:45;2.80;;;1.67;;
15976;SDS011;8091;51.914;12.786;2022-09-02T02:19:12;2.00;;;1.70;;
15976;SDS011;8091;51.914;12.786;2022-09-02T02:21:37;2.03;;;1.55;;
15976;SDS011;8091;51.914;12.786;2022-09-02T02:24:03;5.82;;;1.55;;
15976;SDS011;8091;51.914;12.786;2022-09-02T02:26:29;11.20;;;1.55;;
15976;SDS011;8091;51.914;12.786;2022-09-02T02:28:56;3.33;;;1.90;;
15976;SDS011;8091;51.914;12.786;2022-09-02T02:31:21;1.83;;;1.60;;
15976;SDS011;8091;51.914;12.786;2022-09-02T02:33:48;3.75;;;1.48;;
15976;SDS011;8091;51.914;12.786;2022-09-02T02:36:14;1.80;;;1.65;;
15976;SDS011;8091;51.914;12.786;2022-09-02T02:38:40;1.35;;;1.20;;
15976;SDS011;8091;51.914;12.786;2022-09-02T02:41:10;2.30;;;1.70;;
15976;SDS011;8091;51.914;12.786;2022-09-02T02:43:36;1.50;;;1.40;;
15976;SDS011;8091;51.914;12.786;2022-09-02T02:46:02;1.38;;;1.27;;
15976;SDS011;8091;51.914;12.786;2022-09-02T02:48:28;1.95;;;1.48;;
15976;SDS011;8091;51.914;12.786;2022-09-02T02:50:54;4.25;;;1.73;;
15976;SDS011;8091;51.914;12.786;2022-09-02T02:53:19;2.90;;;1.67;;
15976;SDS011;8091;51.914;12.786;2022-09-02T02:55:45;1.63;;;1.50;;
15976;SDS011;8091;51.914;12.786;2022-09-02T02:58:11;2.50;;;1.50;;
15976;SDS011;8091;51.914;12.786;2022-09-02T03:00:37;1.38;;;1.13;;
15976;SDS011;8091;51.914;12.786;2022-09-02T03:03:04;1.40;;;1.30;;
15976;SDS011;8091;51.914;12.786;2022-09-02T03:05:33;1.40;;;1.30;;
15976;SDS011;8091;51.914;12.786;2022-09-02T03:08:02;1.63;;;1.30;;
15976;SDS011;8091;51.914;12.786;2022-09-02T03:10:29;1.77;;;1.30;;
15976;SDS011;8091;51.914;12.786;2022-09-02T03:12:57;1.50;;;1.40;;
15976;SDS011;8091;51.914;12.786;2022-09-02T03:15:23;6.63;;;1.77;;
15976;SDS011;8091;51.914;12.786;2022-09-02T03:17:50;3.90;;;1.60;;
15976;SDS011;8091;51.914;12.786;2022-09-02T03:20:16;2.72;;;1.80;;
15976;SDS011;8091;51.914;12.786;2022-09-02T03:22:43;1.30;;;1.20;;
15976;SDS011;8091;51.914;12.786;2022-09-02T03:25:10;2.03;;;1.80;;
15976;SDS011;8091;51.914;12.786;2022-09-02T03:27:38;2.70;;;1.67;;
15976;SDS011;8091;51.914;12.786;2022-09-02T03:30:09;1.50;;;1.40;;
15976;SDS011;8091;51.914;12.786;2022-09-02T03:32:36;1.65;;;1.50;;
15976;SDS011;8091;51.914;12.786;2022-09-02T03:35:03;1.70;;;1.60;;
15976;SDS011;8091;51.914;12.786;2022-09-02T03:37:31;1.33;;;1.15;;
15976;SDS011;8091;51.914;12.786;2022-09-02T03:39:57;2.80;;;1.60;;
15976;SDS011;8091;51.914;12.786;2022-09-02T03:42:25;2.78;;;1.60;;
15976;SDS011;8091;51.914;12.786;2022-09-02T03:44:50;2.58;;;1.50;;
15976;SDS011;8091;51.914;12.786;2022-09-02T03:47:16;2.20;;;1.90;;
15976;SDS011;8091;51.914;12.786;2022-09-02T03:49:44;2.10;;;1.70;;
15976;SDS011;8091;51.914;12.786;2022-09-02T03:52:09;3.42;;;2.00;;
15976;SDS011;8091;51.914;12.786;2022-09-02T03:54:35;5.90;;;2.42;;
15976;SDS011;8091;51.914;12.786;2022-09-02T03:57:00;4.55;;;1.85;;
15976;SDS011;8091;51.914;12.786;2022-09-02T03:59:26;4.47;;;1.85;;
15976;SDS011;8091;51.914;12.786;2022-09-02T04:01:51;2.08;;;1.88;;
15976;SDS011;8091;51.914;12.786;2022-09-02T04:04:17;2.45;;;1.58;;
15976;SDS011;8091;51.914;12.786;2022-09-02T04:06:43;2.17;;;1.53;;
15976;SDS011;8091;51.914;12.786;2022-09-02T04:09:09;3.50;;;2.00;;
15976;SDS011;8091;51.914;12.786;2022-09-02T04:11:35;2.97;;;1.70;;
15976;SDS011;8091;51.914;12.786;2022-09-02T04:14:07;3.00;;;2.03;;
15976;SDS011;8091;51.914;12.786;2022-09-02T04:16:33;2.95;;;1.73;;
15976;SDS011;8091;51.914;12.786;2022-09-02T04:18:59;6.97;;;2.00;;
15976;SDS011;8091;51.914;12.786;2022-09-02T04:21:26;4.53;;;2.03;;
15976;SDS011;8091;51.914;12.786;2022-09-02T04:23:52;2.30;;;1.83;;
15976;SDS011;8091;51.914;12.786;2022-09-02T04:26:18;2.38;;;1.88;;
15976;SDS011;8091;51.914;12.786;2022-09-02T04:28:58;2.20;;;2.00;;
15976;SDS011;8091;51.914;12.786;2022-09-02T04:31:24;2.53;;;1.83;;
15976;SDS011;8091;51.914;12.786;2022-09-02T04:33:50;2.25;;;1.75;;
15976;SDS011;8091;51.914;12.786;2022-09-02T04:36:17;2.10;;;1.90;;
15976;SDS011;8091;51.914;12.786;2022-09-02T04:38:44;1.80;;;1.70;;
15976;SDS011;8091;51.914;12.786;2022-09-02T04:41:10;3.05;;;2.05;;
15976;SDS011;8091;51.914;12.786;2022-09-02T04:43:38;3.42;;;2.03;;
15976;SDS011;8091;51.914;12.786;2022-09-02T04:46:05;2.55;;;1.92;;
15976;SDS011;8091;51.914;12.786;2022-09-02T04:48:33;5.00;;;2.10;;
15976;SDS011;8091;51.914;12.786;2022-09-02T04:51:08;8.30;;;1.92;;
15976;SDS011;8091;51.914;12.786;2022-09-02T04:53:42;2.28;;;1.88;;
15976;SDS011;8091;51.914;12.786;2022-09-02T04:56:10;2.15;;;1.85;;
15976;SDS011;8091;51.914;12.786;2022-09-02T04:58:39;2.65;;;1.88;;
15976;SDS011;8091;51.914;12.786;2022-09-02T05:01:05;5.27;;;1.93;;
15976;SDS011;8091;51.914;12.786;2022-09-02T05:03:32;3.13;;;2.10;;
15976;SDS011;8091;51.914;12.786;2022-09-02T05:06:02;2.50;;;2.17;;
15976;SDS011;8091;51.914;12.786;2022-09-02T05:08:29;2.38;;;1.92;;
15976;SDS011;8091;51.914;12.786;2022-09-02T05:10:55;3.42;;;1.73;;
15976;SDS011;8091;51.914;12.786;2022-09-02T05:13:22;6.63;;;1.95;;
15976;SDS011;8091;51.914;12.786;2022-09-02T05:15:47;1.98;;;1.80;;
15976;SDS011;8091;51.914;12.786;2022-09-02T05:18:14;1.92;;;1.80;;
15976;SDS011;8091;51.914;12.786;2022-09-02T05:20:40;2.40;;;1.83;;
15976;SDS011;8091;51.914;12.786;2022-09-02T05:23:07;2.35;;;1.90;;
15976;SDS011;8091;51.914;12.786;2022-09-02T05:25:35;3.78;;;1.80;;
15976;SDS011;8091;51.914;12.786;2022-09-02T05:28:01;4.00;;;2.25;;
15976;SDS011;8091;51.914;12.786;2022-09-02T05:30:27;4.32;;;2.22;;
15976;SDS011;8091;51.914;12.786;2022-09-02T05:32:53;3.92;;;2.20;;
15976;SDS011;8091;51.914;12.786;2022-09-02T05:35:19;6.70;;;2.17;;
15976;SDS011;8091;51.914;12.786;2022-09-02T05:37:44;4.72;;;2.55;;
15976;SDS011;8091;51.914;12.786;2022-09-02T05:40:10;4.00;;;2.35;;
15976;SDS011;8091;51.914;12.786;2022-09-02T05:42:37;3.03;;;2.05;;
15976;SDS011;8091;51.914;12.786;2022-09-02T05:45:03;2.50;;;2.03;;
15976;SDS011;8091;51.914;12.786;2022-09-02T05:47:29;2.53;;;1.70;;
15976;SDS011;8091;51.914;12.786;2022-09-02T05:49:55;4.40;;;2.42;;
15976;SDS011;8091;51.914;12.786;2022-09-02T05:52:21;4.07;;;2.22;;
15976;SDS011;8091;51.914;12.786;2022-09-02T05:54:47;2.30;;;2.08;;
15976;SDS011;8091;51.914;12.786;2022-09-02T05:57:14;2.17;;;1.98;;
15976;SDS011;8091;51.914;12.786;2022-09-02T05:59:41;2.10;;;1.80;;
15976;SDS011;8091;51.914;12.786;2022-09-02T06:02:08;2.97;;;1.98;;
15976;SDS011;8091;51.914;12.786;2022-09-02T06:04:36;3.90;;;2.25;;
15976;SDS011;8091;51.914;12.786;2022-09-02T06:07:06;2.35;;;1.90;;
15976;SDS011;8091;51.914;12.786;2022-09-02T06:09:32;2.83;;;2.15;;
15976;SDS011;8091;51.914;12.786;2022-09-02T06:11:58;4.53;;;1.90;;
15976;SDS011;8091;51.914;12.786;2022-09-02T06:14:24;2.30;;;2.05;;
15976;SDS011;8091;51.914;12.786;2022-09-02T06:16:51;2.67;;;1.80;;
15976;SDS011;8091;51.914;12.786;2022-09-02T06:19:26;7.85;;;2.33;;
15976;SDS011;8091;51.914;12.786;2022-09-02T06:21:56;5.53;;;1.80;;
15976;SDS011;8091;51.914;12.786;2022-09-02T06:24:24;5.35;;;2.00;;
15976;SDS011;8091;51.914;12.786;2022-09-02T06:26:50;3.97;;;2.00;;
15976;SDS011;8091;51.914;12.786;2022-09-02T06:29:17;3.97;;;1.92;;
15976;SDS011;8091;51.914;12.786;2022-09-02T06:31:43;3.60;;;1.63;;
15976;SDS011;8091;51.914;12.786;2022-09-02T06:34:11;3.28;;;1.55;;
15976;SDS011;8091;51.914;12.786;2022-09-02T06:36:39;3.78;;;1.60;;
15976;SDS011;8091;51.914;12.786;2022-09-02T06:39:06;1.60;;;1.45;;
15976;SDS011;8091;51.914;12.786;2022-09-02T06:41:34;2.10;;;1.60;;
15976;SDS011;8091;51.914;12.786;2022-09-02T06:44:00;7.28;;;2.40;;
15976;SDS011;8091;51.914;12.786;2022-09-02T06:46:32;2.92;;;1.85;;
15976;SDS011;8091;51.914;12.786;2022-09-02T06:49:00;3.85;;;2.05;;
15976;SDS011;8091;51.914;12.786;2022-09-02T06:51:32;10.63;;;1.67;;
15976;SDS011;8091;51.914;12.786;2022-09-02T06:54:00;3.22;;;1.48;;
15976;SDS011;8091;51.914;12.786;2022-09-02T06:56:26;1.38;;;1.20;;
15976;SDS011;8091;51.914;12.786;2022-09-02T06:58:52;5.03;;;2.67;;
15976;SDS011;8091;51.914;12.786;2022-09-02T07:01:19;3.47;;;1.40;;
15976;SDS011;8091;51.914;12.786;2022-09-02T07:03:46;4.97;;;1.48;;
15976;SDS011;8091;51.914;12.786;2022-09-02T07:06:32;5.38;;;1.30;;
15976;SDS011;8091;51.914;12.786;2022-09-02T07:09:04;3.13;;;1.40;;
15976;SDS011;8091;51.914;12.786;2022-09-02T07:11:30;1.40;;;1.20;;
15976;SDS011;8091;51.914;12.786;2022-09-02T07:13:56;2.15;;;1.30;;
15976;SDS011;8091;51.914;12.786;2022-09-02T07:16:26;2.17;;;1.08;;
15976;SDS011;8091;51.914;12.786;2022-09-02T07:18:57;1.85;;;1.20;;
15976;SDS011;8091;51.914;12.786;2022-09-02T07:21:25;1.95;;;1.35;;
15976;SDS011;8091;51.914;12.786;2022-09-02T07:23:52;3.08;;;1.80;;
15976;SDS011;8091;51.914;12.786;2022-09-02T07:26:19;1.23;;;1.13;;
15976;SDS011;8091;51.914;12.786;2022-09-02T07:28:44;3.40;;;1.42;;
15976;SDS011;8091;51.914;12.786;2022-09-02T07:31:13;2.08;;;1.23;;
15976;SDS011;8091;51.914;12.786;2022-09-02T07:33:40;1.55;;;1.00;;
15976;SDS011;8091;51.914;12.786;2022-09-02T07:36:06;7.45;;;1.30;;
15976;SDS011;8091;51.914;12.786;2022-09-02T07:38:34;3.63;;;1.00;;
15976;SDS011;8091;51.914;12.786;2022-09-02T07:41:00;3.35;;;1.60;;
15976;SDS011;8091;51.914;12.786;2022-09-02T07:43:27;4.75;;;1.35;;
15976;SDS011;8091;51.914;12.786;2022-09-02T07:45:54;4.22;;;1.23;;
15976;SDS011;8091;51.914;12.786;2022-09-02T07:48:21;3.63;;;1.00;;
15976;SDS011;8091;51.914;12.786;2022-09-02T07:50:48;4.82;;;1.10;;
15976;SDS011;8091;51.914;12.786;2022-09-02T07:53:15;2.45;;;1.23;;
15976;SDS011;8091;51.914;12.786;2022-09-02T07:55:42;3.33;;;1.23;;
15976;SDS011;8091;51.914;12.786;2022-09-02T07:58:08;4.00;;;1.00;;
15976;SDS011;8091;51.914;12.786;2022-09-02T08:00:34;2.15;;;1.30;;
15976;SDS011;8091;51.914;12.786;2022-09-02T08:03:01;6.47;;;1.00;;
15976;SDS011;8091;51.914;12.786;2022-09-02T08:05:28;3.28;;;1.17;;
15976;SDS011;8091;51.914;12.786;2022-09-02T08:07:55;2.80;;;1.00;;
15976;SDS011;8091;51.914;12.786;2022-09-02T08:10:21;4.70;;;1.13;;
15976;SDS011;8091;51.914;12.786;2022-09-02T08:12:51;3.47;;;0.80;;
15976;SDS011;8091;51.914;12.786;2022-09-02T08:15:16;2.70;;;0.95;;
15976;SDS011;8091;51.914;12.786;2022-09-02T08:17:44;3.78;;;1.10;;
15976;SDS011;8091;51.914;12.786;2022-09-02T08:20:11;5.13;;;1.05;;
15976;SDS011;8091;51.914;12.786;2022-09-02T08:22:37;4.00;;;1.15;;
15976;SDS011;8091;51.914;12.786;2022-09-02T08:25:03;1.88;;;0.95;;
15976;SDS011;8091;51.914;12.786;2022-09-02T08:27:30;2.20;;;0.90;;
15976;SDS011;8091;51.914;12.786;2022-09-02T08:29:56;3.75;;;1.05;;
15976;SDS011;8091;51.914;12.786;2022-09-02T08:32:23;0.98;;;0.80;;
15976;SDS011;8091;51.914;12.786;2022-09-02T08:34:48;2.17;;;0.85;;
15976;SDS011;8091;51.914;12.786;2022-09-02T08:37:14;1.33;;;1.10;;
15976;SDS011;8091;51.914;12.786;2022-09-02T08:39:43;7.55;;;1.20;;
15976;SDS011;8091;51.914;12.786;2022-09-02T08:45:13;2.72;;;0.90;;
15976;SDS011;8091;51.914;12.786;2022-09-02T08:47:48;4.15;;;0.80;;
15976;SDS011;8091;51.914;12.786;2022-09-02T08:50:26;2.75;;;0.75;;
15976;SDS011;8091;51.914;12.786;2022-09-02T08:55:32;3.70;;;0.95;;
15976;SDS011;8091;51.914;12.786;2022-09-02T08:58:03;7.68;;;0.98;;
15976;SDS011;8091;51.914;12.786;2022-09-02T09:00:29;0.60;;;0.60;;
15976;SDS011;8091;51.914;12.786;2022-09-02T09:03:14;2.22;;;0.90;;
15976;SDS011;8091;51.914;12.786;2022-09-02T09:08:42;4.72;;;0.75;;
15976;SDS011;8091;51.914;12.786;2022-09-02T09:13:58;2.28;;;0.90;;
15976;SDS011;8091;51.914;12.786;2022-09-02T09:21:37;2.95;;;0.70;;
15976;SDS011;8091;51.914;12.786;2022-09-02T09:24:25;3.08;;;0.65;;
15976;SDS011;8091;51.914;12.786;2022-09-02T09:26:55;6.22;;;1.02;;
15976;SDS011;8091;51.914;12.786;2022-09-02T09:29:22;2.70;;;0.65;;
15976;SDS011;8091;51.914;12.786;2022-09-02T09:31:52;1.33;;;0.60;;
15976;SDS011;8091;51.914;12.786;2022-09-02T09:34:21;1.65;;;0.80;;
15976;SDS011;8091;51.914;12.786;2022-09-02T09:36:50;1.00;;;0.50;;
15976;SDS011;8091;51.914;12.786;2022-09-02T09:41:49;0.70;;;0.60;;
15976;SDS011;8091;51.914;12.786;2022-09-02T09:47:22;1.02;;;0.60;;
15976;SDS011;8091;51.914;12.786;2022-09-02T09:49:54;6.63;;;1.00;;
15976;SDS011;8091;51.914;12.786;2022-09-02T09:52:39;1.10;;;0.60;;
15976;SDS011;8091;51.914;12.786;2022-09-02T09:55:17;1.00;;;0.60;;
15976;SDS011;8091;51.914;12.786;2022-09-02T09:57:46;5.22;;;0.50;;
15976;SDS011;8091;51.914;12.786;2022-09-02T10:00:14;1.25;;;0.88;;
15976;SDS011;8091;51.914;12.786;2022-09-02T10:02:57;1.40;;;0.60;;
15976;SDS011;8091;51.914;12.786;2022-09-02T10:05:37;2.05;;;1.00;;
15976;SDS011;8091;51.914;12.786;2022-09-02T10:10:54;1.08;;;0.73;;
15976;SDS011;8091;51.914;12.786;2022-09-02T10:13:23;3.92;;;0.80;;
15976;SDS011;8091;51.914;12.786;2022-09-02T10:18:44;0.70;;;0.50;;
15976;SDS011;8091;51.914;12.786;2022-09-02T10:26:47;1.08;;;0.60;;
15976;SDS011;8091;51.914;12.786;2022-09-02T10:31:53;1.25;;;0.73;;
15976;SDS011;8091;51.914;12.786;2022-09-02T10:37:26;1.98;;;0.60;;
15976;SDS011;8091;51.914;12.786;2022-09-02T10:40:16;3.15;;;0.80;;
15976;SDS011;8091;51.914;12.786;2022-09-02T10:45:58;4.53;;;0.65;;
15976;SDS011;8091;51.914;12.786;2022-09-02T10:53:46;1.25;;;0.50;;
15976;SDS011;8091;51.914;12.786;2022-09-02T10:56:16;0.93;;;0.60;;
15976;SDS011;8091;51.914;12.786;2022-09-02T11:01:28;0.85;;;0.75;;
15976;SDS011;8091;51.914;12.786;2022-09-02T11:07:11;0.90;;;0.63;;
15976;SDS011;8091;51.914;12.786;2022-09-02T11:09:53;1.52;;;0.75;;
15976;SDS011;8091;51.914;12.786;2022-09-02T11:17:48;2.08;;;0.77;;
15976;SDS011;8091;51.914;12.786;2022-09-02T11:25:45;3.20;;;0.65;;
15976;SDS011;8091;51.914;12.786;2022-09-02T11:28:28;1.45;;;0.70;;
15976;SDS011;8091;51.914;12.786;2022-09-02T11:31:06;0.77;;;0.50;;
15976;SDS011;8091;51.914;12.786;2022-09-02T11:33:45;0.73;;;0.55;;
15976;SDS011;8091;51.914;12.786;2022-09-02T11:36:13;6.18;;;0.88;;
15976;SDS011;8091;51.914;12.786;2022-09-02T11:38:53;1.77;;;0.60;;
15976;SDS011;8091;51.914;12.786;2022-09-02T11:44:13;4.00;;;0.50;;
15976;SDS011;8091;51.914;12.786;2022-09-02T11:47:34;3.00;;;1.05;;
15976;SDS011;8091;51.914;12.786;2022-09-02T11:52:23;4.20;;;0.70;;
15976;SDS011;8091;51.914;12.786;2022-09-02T11:55:08;0.63;;;0.63;;
15976;SDS011;8091;51.914;12.786;2022-09-02T11:57:53;2.75;;;0.45;;
15976;SDS011;8091;51.914;12.786;2022-09-02T12:02:58;2.20;;;0.63;;
15976;SDS011;8091;51.914;12.786;2022-09-02T12:08:06;2.35;;;0.68;;
15976;SDS011;8091;51.914;12.786;2022-09-02T12:13:04;1.77;;;0.55;;
15976;SDS011;8091;51.914;12.786;2022-09-02T12:15:31;2.80;;;0.55;;
15976;SDS011;8091;51.914;12.786;2022-09-02T12:26:21;4.55;;;0.82;;
15976;SDS011;8091;51.914;12.786;2022-09-02T12:31:49;1.05;;;0.70;;
15976;SDS011;8091;51.914;12.786;2022-09-02T12:36:54;1.20;;;0.50;;
15976;SDS011;8091;51.914;12.786;2022-09-02T12:41:48;1.00;;;0.60;;
15976;SDS011;8091;51.914;12.786;2022-09-02T12:46:56;2.25;;;0.68;;
15976;SDS011;8091;51.914;12.786;2022-09-02T12:49:35;1.42;;;0.80;;
15976;SDS011;8091;51.914;12.786;2022-09-02T12:52:07;2.65;;;0.77;;
15976;SDS011;8091;51.914;12.786;2022-09-02T12:57:06;2.25;;;0.80;;
15976;SDS011;8091;51.914;12.786;2022-09-02T12:59:34;2.20;;;0.60;;
15976;SDS011;8091;51.914;12.786;2022-09-02T13:12:52;1.73;;;0.82;;
15976;SDS011;8091;51.914;12.786;2022-09-02T13:32:32;0.82;;;0.75;;
15976;SDS011;8091;51.914;12.786;2022-09-02T13:35:01;3.22;;;0.60;;
15976;SDS011;8091;51.914;12.786;2022-09-02T13:37:42;2.40;;;0.80;;
15976;SDS011;8091;51.914;12.786;2022-09-02T13:42:48;1.80;;;0.93;;
15976;SDS011;8091;51.914;12.786;2022-09-02T13:45:17;2.55;;;0.70;;
15976;SDS011;8091;51.914;12.786;2022-09-02T13:47:45;2.33;;;0.60;;
15976;SDS011;8091;51.914;12.786;2022-09-02T13:50:15;0.82;;;0.80;;
15976;SDS011;8091;51.914;12.786;2022-09-02T13:52:44;1.63;;;0.47;;
15976;SDS011;8091;51.914;12.786;2022-09-02T13:55:14;2.67;;;0.90;;
15976;SDS011;8091;51.914;12.786;2022-09-02T13:57:44;0.60;;;0.60;;
15976;SDS011;8091;51.914;12.786;2022-09-02T14:00:24;0.90;;;0.80;;
15976;SDS011;8091;51.914;12.786;2022-09-02T14:03:09;4.18;;;0.80;;
15976;SDS011;8091;51.914;12.786;2022-09-02T14:05:39;0.77;;;0.77;;
15976;SDS011;8091;51.914;12.786;2022-09-02T14:08:10;3.22;;;0.60;;
15976;SDS011;8091;51.914;12.786;2022-09-02T14:10:39;2.05;;;0.80;;
15976;SDS011;8091;51.914;12.786;2022-09-02T14:13:06;2.30;;;0.75;;
15976;SDS011;8091;51.914;12.786;2022-09-02T14:15:34;4.43;;;1.10;;
15976;SDS011;8091;51.914;12.786;2022-09-02T14:18:07;4.53;;;0.93;;
15976;SDS011;8091;51.914;12.786;2022-09-02T14:20:33;1.77;;;0.80;;
15976;SDS011;8091;51.914;12.786;2022-09-02T14:22:59;1.17;;;0.80;;
15976;SDS011;8091;51.914;12.786;2022-09-02T14:25:26;4.68;;;0.82;;
15976;SDS011;8091;51.914;12.786;2022-09-02T14:27:58;1.33;;;0.90;;
15976;SDS011;8091;51.914;12.786;2022-09-02T14:30:32;1.00;;;0.90;;
15976;SDS011;8091;51.914;12.786;2022-09-02T14:35:58;2.75;;;1.02;;
15976;SDS011;8091;51.914;12.786;2022-09-02T14:38:24;1.98;;;1.00;;
15976;SDS011;8091;51.914;12.786;2022-09-02T14:43:59;1.00;;;0.90;;
15976;SDS011;8091;51.914;12.786;2022-09-02T14:46:48;1.17;;;0.82;;
15976;SDS011;8091;51.914;12.786;2022-09-02T14:51:48;3.63;;;1.08;;
15976;SDS011;8091;51.914;12.786;2022-09-02T14:57:19;10.60;;;2.10;;
15976;SDS011;8091;51.914;12.786;2022-09-02T14:59:48;2.35;;;0.80;;
15976;SDS011;8091;51.914;12.786;2022-09-02T15:02:21;1.48;;;0.90;;
15976;SDS011;8091;51.914;12.786;2022-09-02T15:04:50;1.00;;;0.70;;
15976;SDS011;8091;51.914;12.786;2022-09-02T15:07:16;1.63;;;0.70;;
15976;SDS011;8091;51.914;12.786;2022-09-02T15:09:41;5.68;;;1.13;;
15976;SDS011;8091;51.914;12.786;2022-09-02T15:12:10;2.13;;;1.17;;
15976;SDS011;8091;51.914;12.786;2022-09-02T15:14:37;1.90;;;1.05;;
15976;SDS011;8091;51.914;12.786;2022-09-02T15:17:05;1.05;;;0.68;;
15976;SDS011;8091;51.914;12.786;2022-09-02T15:19:39;1.10;;;1.00;;
15976;SDS011;8091;51.914;12.786;2022-09-02T15:22:05;2.72;;;1.00;;
15976;SDS011;8091;51.914;12.786;2022-09-02T15:24:31;2.30;;;1.20;;
15976;SDS011;8091;51.914;12.786;2022-09-02T15:26:56;1.77;;;1.00;;
15976;SDS011;8091;51.914;12.786;2022-09-02T15:29:22;1.25;;;1.05;;
15976;SDS011;8091;51.914;12.786;2022-09-02T15:31:51;1.88;;;0.90;;
15976;SDS011;8091;51.914;12.786;2022-09-02T15:34:17;5.15;;;0.95;;
15976;SDS011;8091;51.914;12.786;2022-09-02T15:36:45;2.78;;;0.80;;
15976;SDS011;8091;51.914;12.786;2022-09-02T15:39:11;4.03;;;1.08;;
15976;SDS011;8091;51.914;12.786;2022-09-02T15:41:36;7.32;;;1.08;;
15976;SDS011;8091;51.914;12.786;2022-09-02T15:44:04;2.75;;;0.90;;
15976;SDS011;8091;51.914;12.786;2022-09-02T15:46:31;3.60;;;0.98;;
15976;SDS011;8091;51.914;12.786;2022-09-02T15:49:02;1.55;;;0.88;;
15976;SDS011;8091;51.914;12.786;2022-09-02T15:51:30;1.77;;;1.20;;
15976;SDS011;8091;51.914;12.786;2022-09-02T15:53:58;2.95;;;1.05;;
15976;SDS011;8091;51.914;12.786;2022-09-02T15:56:26;1.48;;;0.80;;
15976;SDS011;8091;51.914;12.786;2022-09-02T15:58:57;4.10;;;0.88;;
15976;SDS011;8091;51.914;12.786;2022-09-02T16:01:28;1.90;;;0.70;;
15976;SDS011;8091;51.914;12.786;2022-09-02T16:03:55;8.18;;;1.67;;
15976;SDS011;8091;51.914;12.786;2022-09-02T16:06:22;1.52;;;0.90;;
15976;SDS011;8091;51.914;12.786;2022-09-02T16:08:48;5.00;;;0.90;;
15976;SDS011;8091;51.914;12.786;2022-09-02T16:11:14;0.63;;;0.63;;
15976;SDS011;8091;51.914;12.786;2022-09-02T16:13:40;3.80;;;0.82;;
15976;SDS011;8091;51.914;12.786;2022-09-02T16:16:06;0.88;;;0.60;;
15976;SDS011;8091;51.914;12.786;2022-09-02T16:18:34;1.50;;;1.05;;
15976;SDS011;8091;51.914;12.786;2022-09-02T16:21:01;4.90;;;0.80;;
15976;SDS011;8091;51.914;12.786;2022-09-02T16:23:28;2.20;;;0.80;;
15976;SDS011;8091;51.914;12.786;2022-09-02T16:26:11;1.67;;;0.90;;
15976;SDS011;8091;51.914;12.786;2022-09-02T16:28:38;2.25;;;0.85;;
15976;SDS011;8091;51.914;12.786;2022-09-02T16:31:05;2.25;;;0.80;;
15976;SDS011;8091;51.914;12.786;2022-09-02T16:33:33;1.17;;;0.77;;
15976;SDS011;8091;51.914;12.786;2022-09-02T16:35:59;2.40;;;0.77;;
15976;SDS011;8091;51.914;12.786;2022-09-02T16:38:25;3.13;;;0.93;;
15976;SDS011;8091;51.914;12.786;2022-09-02T16:40:51;2.30;;;0.80;;
15976;SDS011;8091;51.914;12.786;2022-09-02T16:43:18;1.05;;;0.95;;
15976;SDS011;8091;51.914;12.786;2022-09-02T16:45:45;3.58;;;1.00;;
15976;SDS011;8091;51.914;12.786;2022-09-02T16:48:11;6.00;;;0.70;;
15976;SDS011;8091;51.914;12.786;2022-09-02T16:50:37;2.83;;;1.13;;
15976;SDS011;8091;51.914;12.786;2022-09-02T16:53:03;2.88;;;0.75;;
15976;SDS011;8091;51.914;12.786;2022-09-02T16:55:28;0.90;;;0.90;;
15976;SDS011;8091;51.914;12.786;2022-09-02T16:57:54;9.15;;;1.02;;
15976;SDS011;8091;51.914;12.786;2022-09-02T17:00:21;3.78;;;0.82;;
15976;SDS011;8091;51.914;12.786;2022-09-02T17:02:47;1.63;;;0.80;;
15976;SDS011;8091;51.914;12.786;2022-09-02T17:05:13;0.88;;;0.75;;
15976;SDS011;8091;51.914;12.786;2022-09-02T17:07:41;0.75;;;0.70;;
15976;SDS011;8091;51.914;12.786;2022-09-02T17:10:08;1.55;;;1.08;;
15976;SDS011;8091;51.914;12.786;2022-09-02T17:12:34;1.00;;;0.75;;
15976;SDS011;8091;51.914;12.786;2022-09-02T17:15:00;6.05;;;0.88;;
15976;SDS011;8091;51.914;12.786;2022-09-02T17:17:25;1.25;;;0.80;;